Flight Track Log - Related Links

Times and Time Zones

All times are in EDT time to prevent confusion due to time zone crossing. See the DAL6225 flight status page for this flight to view local times or setup timezone preferences in your user account.

Time Position Orientation Groundspeed Altitude Reporting Facility
EDT Latitude Longitude Course Direction KTS MPH feet Rate Location/Type
Thu 08:34:01 AM 43.1881 -89.3108 90° East 236 272 3,000  Level Chicago Center
Thu 08:35:02 AM 43.2242 -89.2311 58° Northeast 248 285 5,700 2,607 Climbing Chicago Center
Thu 08:36:03 AM 43.2161 -89.1381 97° East 246 283 8,300 2,311 Climbing Chicago Center
Thu 08:37:04 AM 43.2047 -89.0319 98° East 274 315 10,400 1,770 Climbing Chicago Center
Thu 08:38:05 AM 43.1900 -88.9147 100° East 303 349 11,900 1,279 Climbing Chicago Center
Thu 08:39:00 AM 43.1168 -88.1229 90° East  Level FlightAware Approximate
Thu 08:39:06 AM 43.1750 -88.7833 99° East 339 390 13,000  Level Chicago Center
Thu 08:40:07 AM 43.1558 -88.6183 99° East 371 427 14,300 1,426 Climbing Chicago Center
Thu 08:41:08 AM 43.1383 -88.4661 99° East 398 458 15,900 1,672 Climbing Chicago Center
Thu 08:42:09 AM 43.1203 -88.3117 99° East 412 474 17,700 1,869 Climbing Chicago Center
Thu 08:43:10 AM 43.1225 -88.1539 89° East 420 483 19,700 1,525 Climbing Chicago Center
Thu 08:44:11 AM 43.1311 -87.9892 86° East 434 499 20,800 1,131 Climbing Chicago Center
Thu 08:45:12 AM 43.1386 -87.8189 86° East 447 514 22,000 1,180 Climbing Chicago Center
Thu 08:46:13 AM 43.1469 -87.6431 86° East 460 529 23,200 1,131 Climbing Chicago Center
Thu 08:47:14 AM 43.1717 -87.4647 79° East 477 549 24,300 1,131 Climbing Chicago Center
Thu 08:48:15 AM 43.2019 -87.2867 77° East 486 559 25,500 1,082 Climbing Chicago Center
Thu 08:49:16 AM 43.2281 -87.1025 79° East 492 566 26,500 1,082 Climbing Chicago Center
Thu 08:50:17 AM 43.2550 -86.9178 79° East 495 570 27,700 1,131 Climbing Chicago Center
Thu 08:51:18 AM 43.2842 -86.7328 78° East 495 570 28,800 1,082 Climbing Chicago Center
Thu 08:52:19 AM 43.3183 -86.5081 78° East 499 574 29,900 984 Climbing Chicago Center
Thu 08:53:20 AM 43.3472 -86.3189 78° East 502 578 30,800 1,033 Climbing Chicago Center
Thu 08:54:21 AM 43.3750 -86.1281 79° East 505 581 32,000 1,230 Climbing Chicago Center
Thu 08:55:22 AM 43.3764 -85.9381 89° East 494 568 33,300 1,082 Climbing Chicago Center
Thu 08:56:23 AM 43.3706 -85.7508 92° East 488 562 34,200 843 Climbing Chicago Center
Thu 08:57:23 AM 43.3642 -85.5675 93° East 481 554 35,000 397 Climbing Chicago Center
Thu 08:58:24 AM 43.3586 -85.3817 92° East 483 556 35,000  Level Chicago Center
Thu 08:59:14 AM 43.3508 -85.2231 94° East 479 551 35,000  Level Cleveland Center
Thu 09:00:14 AM 43.3436 -85.0369 93° East 484 557 35,000  Level Cleveland Center
Thu 09:01:14 AM 43.3381 -84.8536 92° East 484 557 35,000  Level Cleveland Center
Thu 09:02:14 AM 43.3322 -84.6678 92° East 484 557 35,000  Level Cleveland Center
Thu 09:03:14 AM 43.3239 -84.4844 94° East 484 557 35,000  Level Cleveland Center
Thu 09:04:14 AM 43.3153 -84.2983 94° East 484 557 35,000  Level Cleveland Center
Thu 09:05:14 AM 43.3086 -84.1125 93° East 484 557 35,000  Level Cleveland Center
Thu 09:06:14 AM 43.2969 -83.9464 95° East 484 557 35,000  Level Cleveland Center
Thu 09:07:14 AM 43.2900 -83.7547 93° East 484 557 35,000  Level Cleveland Center
Thu 09:08:14 AM 43.2822 -83.5719 93° East 484 557 35,000  Level Cleveland Center
Thu 09:09:14 AM 43.2703 -83.3831 95° East 484 557 35,000  Level Cleveland Center
Thu 09:10:14 AM 43.2622 -83.1944 93° East 484 557 35,000  Level Cleveland Center
Thu 09:11:14 AM 43.2519 -82.9944 94° East 484 557 35,000  Level Cleveland Center
Thu 09:12:14 AM 43.2392 -82.8061 95° East 484 557 35,000  Level Cleveland Center
Thu 09:13:14 AM 43.2300 -82.6175 94° East 484 557 35,000  Level Cleveland Center
Thu 09:13:33 AM 43.2167 -82.5333 102° East 500 575 35,000  Level Toronto Center
Thu 09:14:33 AM 43.2000 -82.3500 97° East 490 564 35,000  Level Toronto Center
Thu 09:15:33 AM 43.1833 -82.1667 97° East 490 564 35,000  Level Toronto Center
Thu 09:16:33 AM 43.1667 -81.9833 97° East 490 564 35,000  Level Toronto Center
Thu 09:17:33 AM 43.1667 -81.8000 90° East 480 552 35,000  Level Toronto Center
Thu 09:18:33 AM 43.1667 -81.6167 90° East 480 552 35,000  Level Toronto Center
Thu 09:19:33 AM 43.1500 -81.4333 97° East 480 552 35,000  Level Toronto Center
Thu 09:20:33 AM 43.1333 -81.2833 99° East 480 552 35,000  Level Toronto Center
Thu 09:21:33 AM 43.1167 -81.0667 96° East 480 552 35,000  Level Toronto Center
Thu 09:22:33 AM 43.1000 -80.9167 99° East 480 552 35,000  Level Toronto Center
Thu 09:23:33 AM 43.1000 -80.7000 90° East 480 552 35,000  Level Toronto Center
Thu 09:24:33 AM 43.0833 -80.5500 99° East 480 552 35,000  Level Toronto Center
Thu 09:25:33 AM 43.0667 -80.3667 97° East 480 552 35,000  Level Toronto Center
Thu 09:26:33 AM 43.0500 -80.1833 97° East 480 552 35,000  Level Toronto Center
Thu 09:27:33 AM 43.0333 -80.0000 97° East 480 552 35,000  Level Toronto Center
Thu 09:28:33 AM 43.0167 -79.8167 97° East 480 552 35,000  Level Toronto Center
Thu 09:29:33 AM 43.0167 -79.6333 90° East 480 552 35,000  Level Toronto Center
Thu 09:30:33 AM 43.0000 -79.4500 97° East 480 552 35,000  Level Toronto Center
Thu 09:31:33 AM 42.9833 -79.2667 97° East 480 552 35,000  Level Toronto Center
Thu 09:32:33 AM 42.9667 -79.0833 97° East 480 552 35,000  Level Toronto Center
Thu 09:33:33 AM 42.9500 -78.9000 97° East 480 552 35,000  Level Toronto Center
Thu 09:34:33 AM 42.9333 -78.7167 97° East 480 552 35,000  Level Toronto Center
Thu 09:35:02 AM 42.9342 -78.6775 88° East 481 554 35,000  Level Cleveland Center
Thu 09:36:02 AM 42.9144 -78.4967 98° East 481 554 35,000  Level Cleveland Center
Thu 09:37:02 AM 42.8964 -78.3158 98° East 481 554 35,000  Level Cleveland Center
Thu 09:38:02 AM 42.8783 -78.1353 98° East 494 568 35,000  Level Cleveland Center
Thu 09:39:02 AM 42.8594 -77.9489 98° East 489 563 35,000  Level Cleveland Center
Thu 09:40:02 AM 42.8408 -77.7686 98° East 484 557 35,000  Level Cleveland Center
Thu 09:42:14 AM 42.7839 -77.3550 100° East 500 575 35,000  Level Boston Center
Thu 09:43:14 AM 42.7561 -77.1747 102° East 490 564 35,000  Level Boston Center
Thu 09:44:12 AM 42.7322 -76.9975 100° East 485 558 35,000  Level Boston Center
Thu 09:45:13 AM 42.7058 -76.8175 101° East 485 558 35,000  Level Boston Center
Thu 09:46:13 AM 42.6814 -76.6347 100° East 485 558 35,000  Level Boston Center
Thu 09:47:14 AM 42.6547 -76.4550 101° East 485 558 35,000  Level Boston Center
Thu 09:48:14 AM 42.6275 -76.2783 102° East 485 558 35,000 -706 Level Boston Center
Thu 09:49:13 AM 42.6019 -76.0989 101° East 479 551 33,600 -1,950 Descending Boston Center
Thu 09:50:14 AM 42.5742 -75.9253 102° East 474 545 31,100 -1,983 Descending Boston Center
Thu 09:51:14 AM 42.5481 -75.7547 102° East 463 533 29,600 -1,438 Descending Boston Center
Thu 09:52:15 AM 42.5217 -75.5814 102° East 463 533 28,200 -1,160 Descending Boston Center
Thu 09:53:13 AM 42.4931 -75.4053 102° East 468 539 27,300 -605 Descending Boston Center
Thu 09:54:14 AM 42.4617 -75.2378 104° East 468 539 27,000 -148 Descending Boston Center
Thu 09:55:15 AM 42.4092 -75.0861 115° Southeast 457 526 27,000  Level Boston Center
Thu 09:56:13 AM 42.3522 -74.9322 117° Southeast 446 513 27,000 -151 Level Boston Center
Thu 09:57:14 AM 42.2950 -74.7783 117° Southeast 446 513 26,700 -1,426 Descending Boston Center
Thu 09:58:15 AM 42.2397 -74.6303 117° Southeast 453 521 24,100 -2,529 Descending Boston Center
Thu 09:59:15 AM 42.1861 -74.4883 117° Southeast 440 506 21,600 -2,519 Descending Boston Center
Thu 10:00:26 AM 42.1244 -74.3156 116° Southeast 432 497 18,600 -1,649 Descending Boston Center
Thu 10:01:26 AM 42.0597 -74.1794 123° Southeast 432 497 18,000 -300 Descending Boston Center
Thu 10:02:26 AM 41.9844 -74.0628 131° Southeast 432 497 18,000  Level Boston Center
Thu 10:03:27 AM 41.8767 -74.0183 163° South 396 456 18,000 50 Level Boston Center
Thu 10:04:25 AM 41.7667 -73.9847 167° South 408 470 18,100 -1,068 Climbing Boston Center
Thu 10:05:25 AM 41.6650 -73.9519 166° South 402 463 15,900 -2,348 Descending Boston Center
Thu 10:06:43 AM 41.5333 -73.9167 169° South 343 395 12,700 -2,087 Descending New York TRACON
Thu 10:07:43 AM 41.4500 -73.8833 163° South 312 359 11,100 -1,579 Descending New York TRACON
Thu 10:08:37 AM 41.3833 -73.8333 151° Southeast 292 336 9,700 -1,250 Descending New York TRACON
Thu 10:09:43 AM 41.3167 -73.7667 143° Southeast 282 325 8,600 -850 Descending New York TRACON
Thu 10:10:37 AM 41.2500 -73.7167 151° Southeast 283 326 8,000 -579 Descending New York TRACON
Thu 10:11:37 AM 41.1833 -73.6667 151° Southeast 281 323 7,500 -850 Descending New York TRACON
Thu 10:12:37 AM 41.1167 -73.6333 159° South 267 307 6,300 -1,150 Descending New York TRACON
Thu 10:13:37 AM 41.0500 -73.6500 191° South 253 291 5,200 -850 Descending New York TRACON
Thu 10:14:37 AM 41.0000 -73.7000 217° Southwest 214 246 4,600 -550 Descending New York TRACON
Thu 10:15:37 AM 40.9500 -73.7333 207° Southwest 194 223 4,100 -800 Descending New York TRACON
Thu 10:16:37 AM 40.9167 -73.7667 217° Southwest 198 228 3,000 -1,050 Descending New York TRACON
Thu 10:17:37 AM 40.8667 -73.8000 207° Southwest 166 191 2,000 -900 Descending New York TRACON
Thu 10:18:37 AM 40.8333 -73.8333 217° Southwest 136 157 1,200 -737 Descending New York TRACON
Thu 10:19:31 AM 40.8000 -73.8500 201° Southwest 133 153 600 -667 Descending New York TRACON
Thu 10:21:00 AM 40.7667 -73.8667 180° South  Level FlightAware Approximate
Thu 10:28:00 AM 40.7772 -73.8726 180° South  Level Estimated
Thu 10:29:00 AM 40.7772 -73.8726 180° South  Level Estimated

Login

Don't have an account? Register now (free) for customized features, flight alerts, and more!